sensor_id;sensor_type;location;lat;lon;timestamp;temperature;humidity
52621;DHT22;38515;53.160;6.990;2024-01-30T00:02:12;5.00;99.90
52621;DHT22;38515;53.160;6.990;2024-01-30T00:04:38;5.80;99.90
52621;DHT22;38515;53.160;6.990;2024-01-30T00:07:04;4.90;99.90
52621;DHT22;38515;53.160;6.990;2024-01-30T00:09:29;4.80;99.90
52621;DHT22;38515;53.160;6.990;2024-01-30T00:11:55;4.90;99.90
52621;DHT22;38515;53.160;6.990;2024-01-30T00:14:20;4.60;99.90
52621;DHT22;38515;53.160;6.990;2024-01-30T00:16:46;4.60;1.00
52621;DHT22;38515;53.160;6.990;2024-01-30T00:19:12;4.60;99.90
52621;DHT22;38515;53.160;6.990;2024-01-30T00:21:37;5.00;99.90
52621;DHT22;38515;53.160;6.990;2024-01-30T00:24:03;4.50;99.90
52621;DHT22;38515;53.160;6.990;2024-01-30T00:26:29;4.50;99.90
52621;DHT22;38515;53.160;6.990;2024-01-30T00:28:55;4.50;99.90
52621;DHT22;38515;53.160;6.990;2024-01-30T00:31:21;4.60;99.90
52621;DHT22;38515;53.160;6.990;2024-01-30T00:33:46;4.70;99.90
52621;DHT22;38515;53.160;6.990;2024-01-30T00:36:12;4.40;99.90
52621;DHT22;38515;53.160;6.990;2024-01-30T00:38:38;4.30;99.90
52621;DHT22;38515;53.160;6.990;2024-01-30T00:41:07;4.20;99.90
52621;DHT22;38515;53.160;6.990;2024-01-30T00:43:33;4.20;99.90
52621;DHT22;38515;53.160;6.990;2024-01-30T00:45:59;4.20;99.90
52621;DHT22;38515;53.160;6.990;2024-01-30T00:48:25;4.10;99.90
52621;DHT22;38515;53.160;6.990;2024-01-30T00:50:50;4.10;99.90
52621;DHT22;38515;53.160;6.990;2024-01-30T00:53:16;4.10;99.90
52621;DHT22;38515;53.160;6.990;2024-01-30T00:55:42;4.00;99.90
52621;DHT22;38515;53.160;6.990;2024-01-30T00:58:07;3.90;1.00
52621;DHT22;38515;53.160;6.990;2024-01-30T01:00:33;4.20;1.00
52621;DHT22;38515;53.160;6.990;2024-01-30T01:02:59;4.00;1.00
52621;DHT22;38515;53.160;6.990;2024-01-30T01:05:25;4.20;55.00
52621;DHT22;38515;53.160;6.990;2024-01-30T01:07:51;4.00;80.10
52621;DHT22;38515;53.160;6.990;2024-01-30T01:10:17;4.10;99.90
52621;DHT22;38515;53.160;6.990;2024-01-30T01:12:44;4.10;99.90
52621;DHT22;38515;53.160;6.990;2024-01-30T01:15:10;4.20;99.90
52621;DHT22;38515;53.160;6.990;2024-01-30T01:17:36;4.20;99.90
52621;DHT22;38515;53.160;6.990;2024-01-30T01:20:03;4.30;99.90
52621;DHT22;38515;53.160;6.990;2024-01-30T01:22:29;4.50;99.90
52621;DHT22;38515;53.160;6.990;2024-01-30T01:24:55;4.90;99.90
52621;DHT22;38515;53.160;6.990;2024-01-30T01:27:21;5.60;99.90
52621;DHT22;38515;53.160;6.990;2024-01-30T01:29:47;4.60;99.90
52621;DHT22;38515;53.160;6.990;2024-01-30T01:32:12;4.50;99.90
52621;DHT22;38515;53.160;6.990;2024-01-30T01:34:38;4.40;99.90
52621;DHT22;38515;53.160;6.990;2024-01-30T01:37:04;5.40;99.90
52621;DHT22;38515;53.160;6.990;2024-01-30T01:39:29;4.50;99.90
52621;DHT22;38515;53.160;6.990;2024-01-30T01:41:55;4.60;99.90
52621;DHT22;38515;53.160;6.990;2024-01-30T01:44:21;4.40;1.00
52621;DHT22;38515;53.160;6.990;2024-01-30T01:46:47;4.90;1.00
52621;DHT22;38515;53.160;6.990;2024-01-30T01:49:14;4.40;1.00
52621;DHT22;38515;53.160;6.990;2024-01-30T01:51:41;4.40;1.00
52621;DHT22;38515;53.160;6.990;2024-01-30T01:54:07;4.30;1.00
52621;DHT22;38515;53.160;6.990;2024-01-30T01:56:33;4.30;1.00
52621;DHT22;38515;53.160;6.990;2024-01-30T01:59:05;4.30;1.00
52621;DHT22;38515;53.160;6.990;2024-01-30T02:01:41;4.20;91.90
52621;DHT22;38515;53.160;6.990;2024-01-30T02:04:07;4.50;99.90
52621;DHT22;38515;53.160;6.990;2024-01-30T02:06:35;4.40;99.90
52621;DHT22;38515;53.160;6.990;2024-01-30T02:09:00;4.20;99.90
52621;DHT22;38515;53.160;6.990;2024-01-30T02:11:26;4.20;99.90
52621;DHT22;38515;53.160;6.990;2024-01-30T02:13:52;4.20;99.90
52621;DHT22;38515;53.160;6.990;2024-01-30T02:16:18;4.30;1.00
52621;DHT22;38515;53.160;6.990;2024-01-30T02:18:44;4.40;1.00
52621;DHT22;38515;53.160;6.990;2024-01-30T02:21:16;4.40;1.00
52621;DHT22;38515;53.160;6.990;2024-01-30T02:23:43;4.30;1.00
52621;DHT22;38515;53.160;6.990;2024-01-30T02:26:10;4.40;1.00
52621;DHT22;38515;53.160;6.990;2024-01-30T02:28:37;4.40;1.00
52621;DHT22;38515;53.160;6.990;2024-01-30T02:31:03;4.40;17.20
52621;DHT22;38515;53.160;6.990;2024-01-30T02:33:29;4.40;1.00
52621;DHT22;38515;53.160;6.990;2024-01-30T02:35:55;4.40;1.00
52621;DHT22;38515;53.160;6.990;2024-01-30T02:38:20;4.40;64.00
52621;DHT22;38515;53.160;6.990;2024-01-30T02:40:46;4.50;81.10
52621;DHT22;38515;53.160;6.990;2024-01-30T02:43:12;4.50;99.90
52621;DHT22;38515;53.160;6.990;2024-01-30T02:45:37;4.50;99.90
52621;DHT22;38515;53.160;6.990;2024-01-30T02:48:03;5.40;99.90
52621;DHT22;38515;53.160;6.990;2024-01-30T02:50:32;4.60;99.90
52621;DHT22;38515;53.160;6.990;2024-01-30T02:52:58;5.00;99.90
52621;DHT22;38515;53.160;6.990;2024-01-30T02:55:23;4.80;99.90
52621;DHT22;38515;53.160;6.990;2024-01-30T02:57:49;5.10;99.90
52621;DHT22;38515;53.160;6.990;2024-01-30T03:00:14;4.90;99.90
52621;DHT22;38515;53.160;6.990;2024-01-30T03:02:40;4.90;99.90
52621;DHT22;38515;53.160;6.990;2024-01-30T03:05:07;4.90;99.90
52621;DHT22;38515;53.160;6.990;2024-01-30T03:07:34;4.90;99.90
52621;DHT22;38515;53.160;6.990;2024-01-30T03:09:59;4.90;99.90
52621;DHT22;38515;53.160;6.990;2024-01-30T03:12:25;5.50;99.90
52621;DHT22;38515;53.160;6.990;2024-01-30T03:14:51;4.80;99.90
52621;DHT22;38515;53.160;6.990;2024-01-30T03:17:16;4.70;99.90
52621;DHT22;38515;53.160;6.990;2024-01-30T03:19:42;4.70;99.90
52621;DHT22;38515;53.160;6.990;2024-01-30T03:22:08;5.70;99.90
52621;DHT22;38515;53.160;6.990;2024-01-30T03:24:33;4.70;99.90
52621;DHT22;38515;53.160;6.990;2024-01-30T03:26:59;4.70;99.90
52621;DHT22;38515;53.160;6.990;2024-01-30T03:29:25;4.80;99.90
52621;DHT22;38515;53.160;6.990;2024-01-30T03:31:50;4.90;99.90
52621;DHT22;38515;53.160;6.990;2024-01-30T03:34:16;3.80;99.90
52621;DHT22;38515;53.160;6.990;2024-01-30T03:36:42;4.80;99.90
52621;DHT22;38515;53.160;6.990;2024-01-30T03:39:08;4.90;1.00
52621;DHT22;38515;53.160;6.990;2024-01-30T03:41:33;4.80;1.00
52621;DHT22;38515;53.160;6.990;2024-01-30T03:43:59;4.90;1.00
52621;DHT22;38515;53.160;6.990;2024-01-30T03:46:25;5.80;16.60
52621;DHT22;38515;53.160;6.990;2024-01-30T03:48:50;5.00;1.00
52621;DHT22;38515;53.160;6.990;2024-01-30T03:51:16;5.60;1.00
52621;DHT22;38515;53.160;6.990;2024-01-30T03:53:43;5.00;1.00
52621;DHT22;38515;53.160;6.990;2024-01-30T03:56:09;5.00;29.10
52621;DHT22;38515;53.160;6.990;2024-01-30T03:58:37;5.30;96.20
52621;DHT22;38515;53.160;6.990;2024-01-30T04:01:03;5.20;1.00
52621;DHT22;38515;53.160;6.990;2024-01-30T04:03:29;5.20;1.00
52621;DHT22;38515;53.160;6.990;2024-01-30T04:05:54;5.20;1.00
52621;DHT22;38515;53.160;6.990;2024-01-30T04:08:20;5.20;1.00
52621;DHT22;38515;53.160;6.990;2024-01-30T04:10:46;5.20;1.00
52621;DHT22;38515;53.160;6.990;2024-01-30T04:13:12;5.80;15.70
52621;DHT22;38515;53.160;6.990;2024-01-30T04:15:38;5.30;99.90
52621;DHT22;38515;53.160;6.990;2024-01-30T04:18:05;5.30;23.40
52621;DHT22;38515;53.160;6.990;2024-01-30T04:20:30;5.30;1.00
52621;DHT22;38515;53.160;6.990;2024-01-30T04:22:56;5.30;14.40
52621;DHT22;38515;53.160;6.990;2024-01-30T04:25:21;5.40;99.90
52621;DHT22;38515;53.160;6.990;2024-01-30T04:27:47;5.30;13.90
52621;DHT22;38515;53.160;6.990;2024-01-30T04:30:13;5.40;1.00
52621;DHT22;38515;53.160;6.990;2024-01-30T04:32:40;5.40;1.00
52621;DHT22;38515;53.160;6.990;2024-01-30T04:35:06;5.40;1.00
52621;DHT22;38515;53.160;6.990;2024-01-30T04:37:31;5.40;98.50
52621;DHT22;38515;53.160;6.990;2024-01-30T04:39:57;5.40;1.00
52621;DHT22;38515;53.160;6.990;2024-01-30T04:42:23;5.40;1.00
52621;DHT22;38515;53.160;6.990;2024-01-30T04:44:49;5.30;1.00
52621;DHT22;38515;53.160;6.990;2024-01-30T04:47:14;5.40;99.90
52621;DHT22;38515;53.160;6.990;2024-01-30T04:49:40;5.70;77.50
52621;DHT22;38515;53.160;6.990;2024-01-30T04:52:07;5.60;64.10
52621;DHT22;38515;53.160;6.990;2024-01-30T04:54:33;5.50;35.50
52621;DHT22;38515;53.160;6.990;2024-01-30T04:56:59;5.50;62.10
52621;DHT22;38515;53.160;6.990;2024-01-30T04:59:24;5.80;99.90
52621;DHT22;38515;53.160;6.990;2024-01-30T05:01:50;5.90;99.90
52621;DHT22;38515;53.160;6.990;2024-01-30T05:04:16;5.80;99.90
52621;DHT22;38515;53.160;6.990;2024-01-30T05:06:42;5.90;99.90
52621;DHT22;38515;53.160;6.990;2024-01-30T05:09:07;5.90;99.90
52621;DHT22;38515;53.160;6.990;2024-01-30T05:11:38;5.90;99.20
52621;DHT22;38515;53.160;6.990;2024-01-30T05:14:05;5.90;5.00
52621;DHT22;38515;53.160;6.990;2024-01-30T05:16:31;6.60;99.90
52621;DHT22;38515;53.160;6.990;2024-01-30T05:18:57;5.90;1.00
52621;DHT22;38515;53.160;6.990;2024-01-30T05:21:23;5.90;1.00
52621;DHT22;38515;53.160;6.990;2024-01-30T05:23:49;6.50;1.00
52621;DHT22;38515;53.160;6.990;2024-01-30T05:26:15;6.10;99.90
52621;DHT22;38515;53.160;6.990;2024-01-30T05:28:40;5.90;1.00
52621;DHT22;38515;53.160;6.990;2024-01-30T05:31:06;5.90;1.00
52621;DHT22;38515;53.160;6.990;2024-01-30T05:33:32;6.70;99.90
52621;DHT22;38515;53.160;6.990;2024-01-30T05:35:57;5.90;1.00
52621;DHT22;38515;53.160;6.990;2024-01-30T05:38:23;5.90;1.00
52621;DHT22;38515;53.160;6.990;2024-01-30T05:40:49;5.90;1.00
52621;DHT22;38515;53.160;6.990;2024-01-30T05:43:14;5.90;99.90
52621;DHT22;38515;53.160;6.990;2024-01-30T05:45:40;5.90;2.10
52621;DHT22;38515;53.160;6.990;2024-01-30T05:48:06;5.90;1.00
52621;DHT22;38515;53.160;6.990;2024-01-30T05:50:32;5.90;1.00
52621;DHT22;38515;53.160;6.990;2024-01-30T05:52:58;6.00;99.90
52621;DHT22;38515;53.160;6.990;2024-01-30T05:55:23;6.00;1.00
52621;DHT22;38515;53.160;6.990;2024-01-30T05:57:49;6.00;99.90
52621;DHT22;38515;53.160;6.990;2024-01-30T06:00:16;6.10;99.90
52621;DHT22;38515;53.160;6.990;2024-01-30T06:02:42;6.10;1.00
52621;DHT22;38515;53.160;6.990;2024-01-30T06:05:08;6.10;99.90
52621;DHT22;38515;53.160;6.990;2024-01-30T06:07:34;6.10;1.00
52621;DHT22;38515;53.160;6.990;2024-01-30T06:09:59;6.90;99.90
52621;DHT22;38515;53.160;6.990;2024-01-30T06:12:27;6.10;1.00
52621;DHT22;38515;53.160;6.990;2024-01-30T06:14:53;6.20;99.90
52621;DHT22;38515;53.160;6.990;2024-01-30T06:17:24;6.70;69.10
52621;DHT22;38515;53.160;6.990;2024-01-30T06:19:50;6.30;1.00
52621;DHT22;38515;53.160;6.990;2024-01-30T06:22:16;6.30;99.90
52621;DHT22;38515;53.160;6.990;2024-01-30T06:24:41;6.40;1.00
52621;DHT22;38515;53.160;6.990;2024-01-30T06:27:10;6.30;99.90
52621;DHT22;38515;53.160;6.990;2024-01-30T06:29:36;6.30;1.00
52621;DHT22;38515;53.160;6.990;2024-01-30T06:32:01;6.20;99.90
52621;DHT22;38515;53.160;6.990;2024-01-30T06:34:27;6.20;1.00
52621;DHT22;38515;53.160;6.990;2024-01-30T06:36:53;6.30;1.00
52621;DHT22;38515;53.160;6.990;2024-01-30T06:39:18;6.30;99.90
52621;DHT22;38515;53.160;6.990;2024-01-30T06:41:44;6.90;99.90
52621;DHT22;38515;53.160;6.990;2024-01-30T06:44:12;6.30;1.00
52621;DHT22;38515;53.160;6.990;2024-01-30T06:46:38;6.30;99.90
52621;DHT22;38515;53.160;6.990;2024-01-30T06:49:04;6.40;99.90
52621;DHT22;38515;53.160;6.990;2024-01-30T06:51:30;6.30;99.90
52621;DHT22;38515;53.160;6.990;2024-01-30T06:53:55;6.40;1.00
52621;DHT22;38515;53.160;6.990;2024-01-30T06:56:21;7.40;99.90
52621;DHT22;38515;53.160;6.990;2024-01-30T06:58:48;6.40;99.90
52621;DHT22;38515;53.160;6.990;2024-01-30T07:01:14;6.60;99.90
52621;DHT22;38515;53.160;6.990;2024-01-30T07:03:40;6.50;80.50
52621;DHT22;38515;53.160;6.990;2024-01-30T07:06:06;6.50;1.00
52621;DHT22;38515;53.160;6.990;2024-01-30T07:08:31;6.60;87.60
52621;DHT22;38515;53.160;6.990;2024-01-30T07:10:57;6.60;1.00
52621;DHT22;38515;53.160;6.990;2024-01-30T07:13:23;6.60;99.90
52621;DHT22;38515;53.160;6.990;2024-01-30T07:15:48;6.60;99.90
52621;DHT22;38515;53.160;6.990;2024-01-30T07:18:14;6.70;93.60
52621;DHT22;38515;53.160;6.990;2024-01-30T07:20:40;6.80;99.90
52621;DHT22;38515;53.160;6.990;2024-01-30T07:23:12;7.40;1.00
52621;DHT22;38515;53.160;6.990;2024-01-30T07:25:40;6.90;99.90
52621;DHT22;38515;53.160;6.990;2024-01-30T07:28:07;6.90;1.00
52621;DHT22;38515;53.160;6.990;2024-01-30T07:30:35;7.60;1.00
52621;DHT22;38515;53.160;6.990;2024-01-30T07:33:01;6.90;99.90
52621;DHT22;38515;53.160;6.990;2024-01-30T07:35:26;6.90;99.90
52621;DHT22;38515;53.160;6.990;2024-01-30T07:37:52;6.90;85.90
52621;DHT22;38515;53.160;6.990;2024-01-30T07:40:18;7.80;99.90
52621;DHT22;38515;53.160;6.990;2024-01-30T07:42:44;7.00;99.90
52621;DHT22;38515;53.160;6.990;2024-01-30T07:45:09;7.00;99.90
52621;DHT22;38515;53.160;6.990;2024-01-30T07:47:35;7.10;99.90
52621;DHT22;38515;53.160;6.990;2024-01-30T07:50:01;7.10;99.90
52621;DHT22;38515;53.160;6.990;2024-01-30T07:52:27;7.20;99.90
52621;DHT22;38515;53.160;6.990;2024-01-30T07:54:52;7.20;1.00
52621;DHT22;38515;53.160;6.990;2024-01-30T07:57:18;7.30;99.90
52621;DHT22;38515;53.160;6.990;2024-01-30T07:59:45;7.30;1.00
52621;DHT22;38515;53.160;6.990;2024-01-30T08:02:12;7.30;1.00
52621;DHT22;38515;53.160;6.990;2024-01-30T08:04:38;7.40;99.90
52621;DHT22;38515;53.160;6.990;2024-01-30T08:07:04;7.90;1.00
52621;DHT22;38515;53.160;6.990;2024-01-30T08:09:30;7.40;99.90
52621;DHT22;38515;53.160;6.990;2024-01-30T08:11:56;7.40;99.90
52621;DHT22;38515;53.160;6.990;2024-01-30T08:14:21;7.50;99.90
52621;DHT22;38515;53.160;6.990;2024-01-30T08:16:47;7.50;99.90
52621;DHT22;38515;53.160;6.990;2024-01-30T08:19:14;7.60;99.90
52621;DHT22;38515;53.160;6.990;2024-01-30T08:21:40;7.60;56.70
52621;DHT22;38515;53.160;6.990;2024-01-30T08:24:07;7.70;99.90
52621;DHT22;38515;53.160;6.990;2024-01-30T08:26:33;7.60;99.90
52621;DHT22;38515;53.160;6.990;2024-01-30T08:28:59;7.80;88.10
52621;DHT22;38515;53.160;6.990;2024-01-30T08:31:24;7.60;1.00
52621;DHT22;38515;53.160;6.990;2024-01-30T08:33:50;7.80;1.00
52621;DHT22;38515;53.160;6.990;2024-01-30T08:36:17;7.70;99.90
52621;DHT22;38515;53.160;6.990;2024-01-30T08:38:43;7.70;99.90
52621;DHT22;38515;53.160;6.990;2024-01-30T08:41:09;7.70;1.00
52621;DHT22;38515;53.160;6.990;2024-01-30T08:43:35;7.80;1.00
52621;DHT22;38515;53.160;6.990;2024-01-30T08:46:02;7.90;1.00
52621;DHT22;38515;53.160;6.990;2024-01-30T08:48:28;8.00;1.00
52621;DHT22;38515;53.160;6.990;2024-01-30T08:50:54;8.10;99.90
52621;DHT22;38515;53.160;6.990;2024-01-30T08:53:19;8.80;99.90
52621;DHT22;38515;53.160;6.990;2024-01-30T08:55:45;8.10;99.90
52621;DHT22;38515;53.160;6.990;2024-01-30T08:58:11;8.20;15.60
52621;DHT22;38515;53.160;6.990;2024-01-30T09:00:37;8.70;1.00
52621;DHT22;38515;53.160;6.990;2024-01-30T09:03:05;8.30;99.90
52621;DHT22;38515;53.160;6.990;2024-01-30T09:05:31;8.30;82.90
52621;DHT22;38515;53.160;6.990;2024-01-30T09:07:57;8.40;1.00
52621;DHT22;38515;53.160;6.990;2024-01-30T09:10:22;8.50;1.00
52621;DHT22;38515;53.160;6.990;2024-01-30T09:12:48;8.70;1.00
52621;DHT22;38515;53.160;6.990;2024-01-30T09:15:15;8.60;65.60
52621;DHT22;38515;53.160;6.990;2024-01-30T09:17:40;8.60;1.00
52621;DHT22;38515;53.160;6.990;2024-01-30T09:20:06;8.70;1.00
52621;DHT22;38515;53.160;6.990;2024-01-30T09:22:32;8.70;1.00
52621;DHT22;38515;53.160;6.990;2024-01-30T09:24:58;8.90;99.90
52621;DHT22;38515;53.160;6.990;2024-01-30T09:27:24;9.10;99.90
52621;DHT22;38515;53.160;6.990;2024-01-30T09:29:50;9.10;99.90
52621;DHT22;38515;53.160;6.990;2024-01-30T09:32:16;9.10;71.00
52621;DHT22;38515;53.160;6.990;2024-01-30T09:34:43;9.10;3.70
52621;DHT22;38515;53.160;6.990;2024-01-30T09:37:09;9.10;1.00
52621;DHT22;38515;53.160;6.990;2024-01-30T09:39:34;9.30;99.90
52621;DHT22;38515;53.160;6.990;2024-01-30T09:42:33;9.20;99.90
52621;DHT22;38515;53.160;6.990;2024-01-30T09:45:01;9.20;1.00
52621;DHT22;38515;53.160;6.990;2024-01-30T09:47:40;9.30;48.10
52621;DHT22;38515;53.160;6.990;2024-01-30T09:50:09;9.30;57.20
52621;DHT22;38515;53.160;6.990;2024-01-30T09:52:35;9.30;1.00
52621;DHT22;38515;53.160;6.990;2024-01-30T09:55:01;9.30;1.00
52621;DHT22;38515;53.160;6.990;2024-01-30T09:57:27;9.30;1.00
52621;DHT22;38515;53.160;6.990;2024-01-30T09:59:53;10.20;1.00
52621;DHT22;38515;53.160;6.990;2024-01-30T10:02:20;9.40;1.00
52621;DHT22;38515;53.160;6.990;2024-01-30T10:04:50;9.50;1.00
52621;DHT22;38515;53.160;6.990;2024-01-30T10:07:16;9.50;1.00
52621;DHT22;38515;53.160;6.990;2024-01-30T10:09:42;9.50;1.00
52621;DHT22;38515;53.160;6.990;2024-01-30T10:12:09;9.50;1.00
52621;DHT22;38515;53.160;6.990;2024-01-30T10:14:41;9.60;99.90
52621;DHT22;38515;53.160;6.990;2024-01-30T10:17:11;9.60;99.90
52621;DHT22;38515;53.160;6.990;2024-01-30T10:19:41;9.70;99.90
52621;DHT22;38515;53.160;6.990;2024-01-30T10:22:07;10.40;99.90
52621;DHT22;38515;53.160;6.990;2024-01-30T10:24:34;9.70;1.00
52621;DHT22;38515;53.160;6.990;2024-01-30T10:26:59;9.80;1.00
52621;DHT22;38515;53.160;6.990;2024-01-30T10:29:26;9.90;99.90
52621;DHT22;38515;53.160;6.990;2024-01-30T10:32:02;9.90;99.90
52621;DHT22;38515;53.160;6.990;2024-01-30T10:34:28;9.90;99.90
52621;DHT22;38515;53.160;6.990;2024-01-30T10:37:09;9.90;99.90
52621;DHT22;38515;53.160;6.990;2024-01-30T10:39:41;10.00;99.90
52621;DHT22;38515;53.160;6.990;2024-01-30T10:42:12;9.90;99.90
52621;DHT22;38515;53.160;6.990;2024-01-30T10:45:00;10.00;99.90
52621;DHT22;38515;53.160;6.990;2024-01-30T10:47:28;10.00;1.00
52621;DHT22;38515;53.160;6.990;2024-01-30T10:49:55;9.90;99.90
52621;DHT22;38515;53.160;6.990;2024-01-30T10:52:23;10.20;99.90
52621;DHT22;38515;53.160;6.990;2024-01-30T10:54:51;10.00;99.90
52621;DHT22;38515;53.160;6.990;2024-01-30T10:57:17;10.70;99.90
52621;DHT22;38515;53.160;6.990;2024-01-30T10:59:43;10.10;99.90
52621;DHT22;38515;53.160;6.990;2024-01-30T11:02:10;10.20;99.90
52621;DHT22;38515;53.160;6.990;2024-01-30T11:04:37;10.00;99.90
52621;DHT22;38515;53.160;6.990;2024-01-30T11:07:45;10.00;99.90
52621;DHT22;38515;53.160;6.990;2024-01-30T11:12:26;10.10;99.90
52621;DHT22;38515;53.160;6.990;2024-01-30T11:15:06;10.10;99.90
52621;DHT22;38515;53.160;6.990;2024-01-30T11:20:26;10.20;99.90
52621;DHT22;38515;53.160;6.990;2024-01-30T11:22:54;10.10;99.90
52621;DHT22;38515;53.160;6.990;2024-01-30T11:25:21;10.20;99.90
52621;DHT22;38515;53.160;6.990;2024-01-30T11:27:50;10.20;99.90
52621;DHT22;38515;53.160;6.990;2024-01-30T11:30:26;10.20;99.90
52621;DHT22;38515;53.160;6.990;2024-01-30T11:35:38;10.30;99.90
52621;DHT22;38515;53.160;6.990;2024-01-30T11:38:06;10.40;99.20
52621;DHT22;38515;53.160;6.990;2024-01-30T11:40:32;10.30;98.70
52621;DHT22;38515;53.160;6.990;2024-01-30T11:43:00;10.40;49.20
52621;DHT22;38515;53.160;6.990;2024-01-30T11:45:26;10.40;40.40
52621;DHT22;38515;53.160;6.990;2024-01-30T11:47:53;10.40;1.00
52621;DHT22;38515;53.160;6.990;2024-01-30T11:50:19;10.50;1.00
52621;DHT22;38515;53.160;6.990;2024-01-30T11:52:45;10.40;1.00
52621;DHT22;38515;53.160;6.990;2024-01-30T11:55:11;10.50;1.00
52621;DHT22;38515;53.160;6.990;2024-01-30T11:57:37;10.50;1.00
52621;DHT22;38515;53.160;6.990;2024-01-30T12:00:04;10.40;1.00
52621;DHT22;38515;53.160;6.990;2024-01-30T12:02:39;10.50;1.00
52621;DHT22;38515;53.160;6.990;2024-01-30T12:05:05;10.50;1.00
52621;DHT22;38515;53.160;6.990;2024-01-30T12:07:31;10.40;1.00
52621;DHT22;38515;53.160;6.990;2024-01-30T12:09:57;10.50;1.00
52621;DHT22;38515;53.160;6.990;2024-01-30T12:12:25;10.40;7.00
52621;DHT22;38515;53.160;6.990;2024-01-30T12:14:51;10.40;30.30
52621;DHT22;38515;53.160;6.990;2024-01-30T12:17:37;10.50;10.60
52621;DHT22;38515;53.160;6.990;2024-01-30T12:20:03;10.50;99.90
52621;DHT22;38515;53.160;6.990;2024-01-30T12:22:29;10.50;99.90
52621;DHT22;38515;53.160;6.990;2024-01-30T12:24:54;10.50;99.90
52621;DHT22;38515;53.160;6.990;2024-01-30T12:27:20;10.50;99.90
52621;DHT22;38515;53.160;6.990;2024-01-30T12:29:46;10.50;99.90
52621;DHT22;38515;53.160;6.990;2024-01-30T12:32:16;10.60;99.90
52621;DHT22;38515;53.160;6.990;2024-01-30T12:34:42;11.00;99.90
52621;DHT22;38515;53.160;6.990;2024-01-30T12:37:08;10.40;1.00
52621;DHT22;38515;53.160;6.990;2024-01-30T12:39:35;10.20;1.00
52621;DHT22;38515;53.160;6.990;2024-01-30T12:42:01;10.60;1.00
52621;DHT22;38515;53.160;6.990;2024-01-30T12:44:27;10.00;1.00
52621;DHT22;38515;53.160;6.990;2024-01-30T12:46:52;9.90;1.00
52621;DHT22;38515;53.160;6.990;2024-01-30T12:49:20;10.00;1.00
52621;DHT22;38515;53.160;6.990;2024-01-30T12:51:46;9.90;1.00
52621;DHT22;38515;53.160;6.990;2024-01-30T12:54:13;10.10;1.00
52621;DHT22;38515;53.160;6.990;2024-01-30T12:56:38;10.00;99.90
52621;DHT22;38515;53.160;6.990;2024-01-30T12:59:04;10.10;99.90
52621;DHT22;38515;53.160;6.990;2024-01-30T13:01:30;10.30;99.90
52621;DHT22;38515;53.160;6.990;2024-01-30T13:03:55;10.20;99.90
52621;DHT22;38515;53.160;6.990;2024-01-30T13:06:22;10.40;99.90
52621;DHT22;38515;53.160;6.990;2024-01-30T13:08:48;10.40;1.00
52621;DHT22;38515;53.160;6.990;2024-01-30T13:11:14;10.40;1.00
52621;DHT22;38515;53.160;6.990;2024-01-30T13:13:39;10.40;1.00
52621;DHT22;38515;53.160;6.990;2024-01-30T13:16:05;10.30;99.90
52621;DHT22;38515;53.160;6.990;2024-01-30T13:18:31;10.30;99.90
52621;DHT22;38515;53.160;6.990;2024-01-30T13:20:56;10.30;99.90
52621;DHT22;38515;53.160;6.990;2024-01-30T13:23:23;10.20;81.50
52621;DHT22;38515;53.160;6.990;2024-01-30T13:25:48;10.10;1.00
52621;DHT22;38515;53.160;6.990;2024-01-30T13:28:14;10.00;1.00
52621;DHT22;38515;53.160;6.990;2024-01-30T13:30:40;9.90;2.20
52621;DHT22;38515;53.160;6.990;2024-01-30T13:33:05;9.90;1.00
52621;DHT22;38515;53.160;6.990;2024-01-30T13:35:31;9.80;1.00
52621;DHT22;38515;53.160;6.990;2024-01-30T13:37:57;9.90;99.90
52621;DHT22;38515;53.160;6.990;2024-01-30T13:40:22;9.80;99.90
52621;DHT22;38515;53.160;6.990;2024-01-30T13:42:48;9.80;99.90
52621;DHT22;38515;53.160;6.990;2024-01-30T13:45:13;10.10;99.90
52621;DHT22;38515;53.160;6.990;2024-01-30T13:47:40;9.70;99.90
52621;DHT22;38515;53.160;6.990;2024-01-30T13:50:06;9.70;1.00
52621;DHT22;38515;53.160;6.990;2024-01-30T13:52:31;9.70;1.00
52621;DHT22;38515;53.160;6.990;2024-01-30T13:54:57;10.20;1.00
52621;DHT22;38515;53.160;6.990;2024-01-30T13:57:23;9.70;1.00
52621;DHT22;38515;53.160;6.990;2024-01-30T13:59:48;9.80;1.00
52621;DHT22;38515;53.160;6.990;2024-01-30T14:02:14;9.80;1.00
52621;DHT22;38515;53.160;6.990;2024-01-30T14:04:40;9.90;1.00
52621;DHT22;38515;53.160;6.990;2024-01-30T14:07:05;10.10;1.00
52621;DHT22;38515;53.160;6.990;2024-01-30T14:09:31;10.30;99.90
52621;DHT22;38515;53.160;6.990;2024-01-30T14:11:58;10.30;99.90
52621;DHT22;38515;53.160;6.990;2024-01-30T14:14:24;10.20;99.90
52621;DHT22;38515;53.160;6.990;2024-01-30T14:16:49;10.30;99.90
52621;DHT22;38515;53.160;6.990;2024-01-30T14:19:15;10.20;99.90
52621;DHT22;38515;53.160;6.990;2024-01-30T14:21:40;10.10;99.90
52621;DHT22;38515;53.160;6.990;2024-01-30T14:24:06;10.00;99.90
52621;DHT22;38515;53.160;6.990;2024-01-30T14:26:32;9.90;99.90
52621;DHT22;38515;53.160;6.990;2024-01-30T14:28:57;10.60;99.90
52621;DHT22;38515;53.160;6.990;2024-01-30T14:31:23;9.90;99.90
52621;DHT22;38515;53.160;6.990;2024-01-30T14:33:49;9.80;99.90
52621;DHT22;38515;53.160;6.990;2024-01-30T14:36:16;9.80;99.90
52621;DHT22;38515;53.160;6.990;2024-01-30T14:38:42;10.00;99.90
52621;DHT22;38515;53.160;6.990;2024-01-30T14:41:07;10.30;99.90
52621;DHT22;38515;53.160;6.990;2024-01-30T14:43:33;9.60;1.00
52621;DHT22;38515;53.160;6.990;2024-01-30T14:45:59;9.60;1.00
52621;DHT22;38515;53.160;6.990;2024-01-30T14:48:25;9.50;1.00
52621;DHT22;38515;53.160;6.990;2024-01-30T14:50:50;9.50;18.40
52621;DHT22;38515;53.160;6.990;2024-01-30T14:53:16;9.40;99.90
52621;DHT22;38515;53.160;6.990;2024-01-30T14:55:41;9.30;99.90
52621;DHT22;38515;53.160;6.990;2024-01-30T14:58:07;9.30;99.90
52621;DHT22;38515;53.160;6.990;2024-01-30T15:00:33;9.40;1.00
52621;DHT22;38515;53.160;6.990;2024-01-30T15:02:59;9.20;1.00
52621;DHT22;38515;53.160;6.990;2024-01-30T15:05:24;9.40;99.90
52621;DHT22;38515;53.160;6.990;2024-01-30T15:07:50;9.00;99.90
52621;DHT22;38515;53.160;6.990;2024-01-30T15:10:16;9.00;1.00
52621;DHT22;38515;53.160;6.990;2024-01-30T15:12:41;8.90;1.00
52621;DHT22;38515;53.160;6.990;2024-01-30T15:15:08;8.90;99.90
52621;DHT22;38515;53.160;6.990;2024-01-30T15:17:34;8.80;99.90
52621;DHT22;38515;53.160;6.990;2024-01-30T15:19:59;8.80;1.00
52621;DHT22;38515;53.160;6.990;2024-01-30T15:22:26;8.80;1.00
52621;DHT22;38515;53.160;6.990;2024-01-30T15:24:51;8.70;73.30
52621;DHT22;38515;53.160;6.990;2024-01-30T15:27:17;8.70;99.90
52621;DHT22;38515;53.160;6.990;2024-01-30T15:29:45;8.60;99.90
52621;DHT22;38515;53.160;6.990;2024-01-30T15:32:11;8.70;1.00
52621;DHT22;38515;53.160;6.990;2024-01-30T15:34:36;8.60;1.00
52621;DHT22;38515;53.160;6.990;2024-01-30T15:37:02;8.60;99.90
52621;DHT22;38515;53.160;6.990;2024-01-30T15:39:28;8.50;99.90
52621;DHT22;38515;53.160;6.990;2024-01-30T15:41:54;8.50;99.90
52621;DHT22;38515;53.160;6.990;2024-01-30T15:44:20;8.40;1.00
52621;DHT22;38515;53.160;6.990;2024-01-30T15:46:46;8.40;99.90
52621;DHT22;38515;53.160;6.990;2024-01-30T15:49:12;8.40;99.90
52621;DHT22;38515;53.160;6.990;2024-01-30T15:51:38;8.30;99.90
52621;DHT22;38515;53.160;6.990;2024-01-30T15:54:03;8.30;99.90